x

Prince Edward Pt (45135) Wave Buoy

5:00am - Mon 26th Sep 2016 All times are CDT. -5 hours from GMT.

  • Sig Wave height 3.6ft
  • Peak Period 5s
  • Wind
    25mph, 31mph gusts
  • Sea Temp 69°f
  • Air Temp 60°f
  • Sea Pressure 1018.7mb
  • Prince Edward Pt
  • Prince Edward Pt

More Historic Weather Station data

Upgrade to MSW Pro to gain access to the past 30 days of data for over 8000 Wavebouys and Weather Stations around the globe.

Join Pro

Comparision Forecast

View Surf forecast
   
Mon 09/26 5:00am 3.5ft 5s 25 31 mph 1018.7mb 69f 60f
4:00am 3ft 4s 22 27 mph 1018.9mb 69f 60f
3:00am 2.5ft 4s 20 25 mph 1019.5mb 69f 60f
2:00am 2.5ft 4s 20 22 mph 1020.2mb 69f 61f
1:00am 1.6ft 3s 18 22 mph 1021mb 69f 62f
12:00am 1ft 2s 13 20 mph 1021.2mb 70f 62f
Sun 09/25 11:00pm 0.3ft 2s 11 16 mph 1021.8mb 70f 62f
10:00pm 0.3ft 2s 11 13 mph 1022.1mb 70f 62f
9:00pm  -  3s 7 11 mph 1022.5mb 70f 62f
8:00pm  -  4s 7 9 mph 1022.7mb 69f 61f
7:00pm  -  3s 4 7 mph 1022.7mb 70f 60f
6:00pm 0.3ft 2s  -  4 mph 1022.7mb 70f 59f
5:00pm 0.3ft 2s  -  2 mph 1022.6mb 71f 60f
4:00pm 0.3ft 2s 2 4 mph 1023mb 71f 59f
3:00pm 0.3ft 2s 2 4 mph 1023.4mb 71f 58f
2:00pm 0.3ft 2s 2 4 mph 1024mb 71f 57f
1:00pm 0.7ft 3s 2 4 mph 1024.5mb 70f 57f
12:00pm 0.7ft 3s 4 7 mph 1025.1mb 70f 56f
11:00am 1ft 3s 7 11 mph 1025.4mb 70f 56f
10:00am 1ft 3s 9 11 mph 1025.5mb 69f 55f
9:00am 1.3ft 3s 9 13 mph 1025.6mb 69f 55f
8:00am 1.3ft 3s 9 13 mph 1025.6mb 69f 55f
7:00am 1.3ft 3s 9 13 mph 1025mb 69f 55f
6:00am 1.3ft 4s 11 16 mph 1024.5mb 69f 55f
5:00am 1.6ft 4s 9 13 mph 1024.3mb 69f 55f
4:00am 1.6ft 4s 11 16 mph 1024.4mb 69f 55f
3:00am 2.5ft 4s 13 18 mph 1023.9mb 69f 56f
2:00am 2.5ft 4s 13 18 mph 1024mb 69f 56f
12:00am 3ft 5s 18 22 mph 1023.5mb 69f 59f
Sat 09/24 11:00pm 2.5ft 4s 20 27 mph 1023.3mb 70f 59f
10:00pm 1.6ft 3s 20 22 mph 1023mb 70f 61f
9:00pm  -   -  16
mph
1022.8mb 70f 63f
8:00pm 0.3ft 2s 13 18 mph 1022.6mb 70f 64f
7:00pm 0.3ft 2s 9 13 mph 1022.5mb 70f 64f
6:00pm 0.3ft 2s 9 11 mph 1022.6mb 70f 62f
5:00pm 0.3ft 2s 7 9 mph 1022.5mb 71f 62f
4:00pm 0.3ft 2s 7 9 mph 1022.7mb 71f 62f
3:00pm 0.3ft 3s 4 9 mph 1022.7mb 71f 62f
2:00pm 0.7ft 3s 7 11 mph 1022.9mb 71f 61f
1:00pm 0.7ft 3s 7 11 mph 1023.3mb 71f 60f
12:00pm 1ft 3s 9 13 mph 1024.2mb 70f 60f
11:00am 1ft 3s 9 13 mph 1024.5mb 70f 59f
10:00am 1.3ft 3s 11 13 mph 1024.6mb 70f 58f
9:00am 1.3ft 4s 11 16 mph 1024.4mb 70f 58f
8:00am  -   -  11
mph
- - -
7:00am 1.6ft 3s 11 16 mph 1023.7mb 70f 58f
6:00am 1.6ft 3s 13 18 mph 1023mb 70f 58f
5:00am 1.6ft 4s 13 18 mph 1022.6mb 70f 58f
4:00am 2ft 4s 13 18 mph 1022.3mb 70f 59f
3:00am 2ft 4s 16 20 mph 1022mb 70f 58f
2:00am 2ft 4s 13 18 mph 1021.9mb 70f 58f
1:00am 2.5ft 4s 16 18 mph 1022mb 70f 58f
12:00am 2.5ft 4s 16 22 mph 1021.6mb 70f 60f
Fri 09/23 11:00pm 3ft 4s 20 25 mph 1021.7mb 70f 60f
10:00pm 3ft 4s 22 27 mph 1021.8mb 70f 60f
9:00pm 2.5ft 4s 22 27 mph 1021.4mb 70f 61f
8:00pm 2.5ft 4s 20 25 mph 1020.9mb 70f 62f
7:00pm 2.5ft 4s 20 25 mph 1020.3mb 70f 63f
6:00pm  -   -  16
mph
1020mb - 63f
4:00pm 3.5ft 4s 20 25 mph 1019.6mb 70f 61f
2:00pm 4ft 4s 20 25 mph 1019.4mb 70f 60f
1:00pm  -   -  22
mph
- - -
12:00pm 4.5ft 5s 22 27 mph 1019.2mb 71f 59f
11:00am 4ft 5s 25 29 mph 1019.1mb 71f 60f
10:00am 3.5ft 5s 25 31 mph 1019mb 71f 60f
8:00am 3.5ft 4s 27 29 mph 1018.3mb 71f 60f
6:00am 2ft 3s 22 27 mph 1017mb 71f 63f
5:00am 0.3ft 2s 20 27 mph 1016.2mb 71f 69f
4:00am 0.7ft 3s 7
mph
1015.5mb 72f 71f
3:00am 0.7ft 2s 9
mph
1015.6mb 72f 70f
2:00am 0.7ft 3s 9 13 mph 1015.6mb 72f 71f
1:00am 0.7ft 2s 7 9 mph 1016mb 72f 71f
12:00am 1ft 3s 13 16 mph 1015.7mb 72f 73f
Thu 09/22 11:00pm 0.7ft 2s 13
mph
1015.3mb 72f 73f
10:00pm 0.7ft 2s 11 13 mph 1015.4mb 72f 73f
9:00pm 0.3ft 2s 11 13 mph 1015.7mb 72f 72f
8:00pm 0.3ft 2s 9
mph
1016.3mb 72f 73f
7:00pm 0.3ft 2s 7
mph
1016.8mb 72f 72f
6:00pm 0.3ft 2s 9 11 mph 1016.8mb 72f 72f
5:00pm 0.7ft 2s 7 9 mph 1017.2mb 72f 71f
4:00pm 0.7ft 3s 4
mph
1018mb 72f 71f
3:00pm 1ft 3s 4 7 mph 1018.3mb 72f 71f
2:00pm 1.3ft 3s 7 9 mph 1018.5mb 72f 71f
1:00pm 1.6ft 4s 9 11 mph 1018.9mb 72f 71f
12:00pm 2ft 4s 11 13 mph 1019mb 72f 71f